sensor_id;sensor_type;location;lat;lon;timestamp;P1;durP1;ratioP1;P2;durP2;ratioP2
1128;SDS011;553;51.038;7.216;2022-09-09T00:01:28;3.50;;;1.50;;
1128;SDS011;553;51.038;7.216;2022-09-09T00:09:25;5.30;;;1.30;;
1128;SDS011;553;51.038;7.216;2022-09-09T00:11:58;1.57;;;1.07;;
1128;SDS011;553;51.038;7.216;2022-09-09T00:14:42;7.13;;;1.50;;
1128;SDS011;553;51.038;7.216;2022-09-09T00:17:31;2.40;;;1.30;;
1128;SDS011;553;51.038;7.216;2022-09-09T00:28:48;2.03;;;1.00;;
1128;SDS011;553;51.038;7.216;2022-09-09T00:31:25;2.13;;;1.17;;
1128;SDS011;553;51.038;7.216;2022-09-09T00:33:55;4.30;;;1.33;;
1128;SDS011;553;51.038;7.216;2022-09-09T00:36:28;3.20;;;1.30;;
1128;SDS011;553;51.038;7.216;2022-09-09T00:38:58;2.40;;;1.10;;
1128;SDS011;553;51.038;7.216;2022-09-09T00:41:39;4.37;;;1.40;;
1128;SDS011;553;51.038;7.216;2022-09-09T00:44:30;2.27;;;1.37;;
1128;SDS011;553;51.038;7.216;2022-09-09T00:47:04;2.53;;;1.10;;
1128;SDS011;553;51.038;7.216;2022-09-09T00:50:05;3.57;;;1.20;;
1128;SDS011;553;51.038;7.216;2022-09-09T00:52:39;2.60;;;1.27;;
1128;SDS011;553;51.038;7.216;2022-09-09T00:58:07;2.50;;;1.10;;
1128;SDS011;553;51.038;7.216;2022-09-09T01:00:41;4.20;;;1.07;;
1128;SDS011;553;51.038;7.216;2022-09-09T01:03:15;5.43;;;1.20;;
1128;SDS011;553;51.038;7.216;2022-09-09T01:11:24;3.83;;;1.50;;
1128;SDS011;553;51.038;7.216;2022-09-09T01:17:19;2.50;;;1.20;;
1128;SDS011;553;51.038;7.216;2022-09-09T01:20:27;3.10;;;0.90;;
1128;SDS011;553;51.038;7.216;2022-09-09T01:26:37;1.17;;;1.00;;
1128;SDS011;553;51.038;7.216;2022-09-09T01:29:15;2.70;;;1.40;;
1128;SDS011;553;51.038;7.216;2022-09-09T01:31:52;2.57;;;1.00;;
1128;SDS011;553;51.038;7.216;2022-09-09T01:34:22;2.73;;;1.20;;
1128;SDS011;553;51.038;7.216;2022-09-09T01:39:26;3.07;;;1.50;;
1128;SDS011;553;51.038;7.216;2022-09-09T01:42:02;2.60;;;1.20;;
1128;SDS011;553;51.038;7.216;2022-09-09T01:44:32;4.87;;;1.30;;
1128;SDS011;553;51.038;7.216;2022-09-09T01:47:00;3.53;;;1.50;;
1128;SDS011;553;51.038;7.216;2022-09-09T01:49:27;2.53;;;1.10;;
1128;SDS011;553;51.038;7.216;2022-09-09T01:51:55;5.73;;;1.80;;
1128;SDS011;553;51.038;7.216;2022-09-09T01:54:31;3.20;;;1.53;;
1128;SDS011;553;51.038;7.216;2022-09-09T01:57:18;2.07;;;1.10;;
1128;SDS011;553;51.038;7.216;2022-09-09T02:02:30;2.23;;;1.30;;
1128;SDS011;553;51.038;7.216;2022-09-09T02:05:35;3.03;;;1.13;;
1128;SDS011;553;51.038;7.216;2022-09-09T02:08:20;3.73;;;1.30;;
1128;SDS011;553;51.038;7.216;2022-09-09T02:11:05;7.13;;;1.57;;
1128;SDS011;553;51.038;7.216;2022-09-09T02:13:43;4.33;;;1.30;;
1128;SDS011;553;51.038;7.216;2022-09-09T02:16:24;2.87;;;1.67;;
1128;SDS011;553;51.038;7.216;2022-09-09T02:18:56;4.90;;;1.20;;
1128;SDS011;553;51.038;7.216;2022-09-09T02:21:33;3.60;;;1.13;;
1128;SDS011;553;51.038;7.216;2022-09-09T02:24:04;5.20;;;1.67;;
1128;SDS011;553;51.038;7.216;2022-09-09T02:26:41;3.93;;;1.60;;
1128;SDS011;553;51.038;7.216;2022-09-09T02:29:14;2.33;;;1.20;;
1128;SDS011;553;51.038;7.216;2022-09-09T02:31:45;5.70;;;1.33;;
1128;SDS011;553;51.038;7.216;2022-09-09T02:34:20;3.40;;;1.50;;
1128;SDS011;553;51.038;7.216;2022-09-09T02:36:49;4.47;;;1.73;;
1128;SDS011;553;51.038;7.216;2022-09-09T02:39:19;3.17;;;1.40;;
1128;SDS011;553;51.038;7.216;2022-09-09T02:41:48;3.53;;;1.97;;
1128;SDS011;553;51.038;7.216;2022-09-09T02:44:16;1.30;;;1.17;;
1128;SDS011;553;51.038;7.216;2022-09-09T02:49:24;3.67;;;1.30;;
1128;SDS011;553;51.038;7.216;2022-09-09T02:52:05;5.17;;;1.73;;
1128;SDS011;553;51.038;7.216;2022-09-09T02:54:35;5.63;;;1.27;;
1128;SDS011;553;51.038;7.216;2022-09-09T02:57:22;2.40;;;1.50;;
1128;SDS011;553;51.038;7.216;2022-09-09T02:59:53;5.47;;;2.03;;
1128;SDS011;553;51.038;7.216;2022-09-09T03:02:22;5.37;;;1.50;;
1128;SDS011;553;51.038;7.216;2022-09-09T03:04:56;4.90;;;1.80;;
1128;SDS011;553;51.038;7.216;2022-09-09T03:07:22;5.23;;;2.17;;
1128;SDS011;553;51.038;7.216;2022-09-09T03:09:50;6.60;;;2.13;;
1128;SDS011;553;51.038;7.216;2022-09-09T03:12:18;4.67;;;1.60;;
1128;SDS011;553;51.038;7.216;2022-09-09T03:14:44;4.20;;;1.83;;
1128;SDS011;553;51.038;7.216;2022-09-09T03:17:12;6.07;;;1.60;;
1128;SDS011;553;51.038;7.216;2022-09-09T03:19:45;4.43;;;1.47;;
1128;SDS011;553;51.038;7.216;2022-09-09T03:22:12;4.60;;;1.60;;
1128;SDS011;553;51.038;7.216;2022-09-09T03:24:41;4.50;;;1.70;;
1128;SDS011;553;51.038;7.216;2022-09-09T03:27:08;4.53;;;1.80;;
1128;SDS011;553;51.038;7.216;2022-09-09T03:29:37;5.73;;;1.30;;
1128;SDS011;553;51.038;7.216;2022-09-09T03:32:06;3.53;;;1.20;;
1128;SDS011;553;51.038;7.216;2022-09-09T03:34:36;5.40;;;1.50;;
1128;SDS011;553;51.038;7.216;2022-09-09T03:37:09;8.80;;;1.93;;
1128;SDS011;553;51.038;7.216;2022-09-09T03:39:36;4.07;;;1.50;;
1128;SDS011;553;51.038;7.216;2022-09-09T03:42:03;5.40;;;1.50;;
1128;SDS011;553;51.038;7.216;2022-09-09T03:44:30;3.93;;;1.50;;
1128;SDS011;553;51.038;7.216;2022-09-09T03:46:57;3.90;;;1.50;;
1128;SDS011;553;51.038;7.216;2022-09-09T03:49:27;4.07;;;1.13;;
1128;SDS011;553;51.038;7.216;2022-09-09T03:51:55;3.70;;;1.33;;
1128;SDS011;553;51.038;7.216;2022-09-09T03:54:23;4.70;;;1.60;;
1128;SDS011;553;51.038;7.216;2022-09-09T03:56:50;6.20;;;1.80;;
1128;SDS011;553;51.038;7.216;2022-09-09T03:59:17;5.50;;;1.90;;
1128;SDS011;553;51.038;7.216;2022-09-09T04:01:44;3.73;;;1.57;;
1128;SDS011;553;51.038;7.216;2022-09-09T04:04:11;3.07;;;1.67;;
1128;SDS011;553;51.038;7.216;2022-09-09T04:06:38;3.40;;;1.40;;
1128;SDS011;553;51.038;7.216;2022-09-09T04:09:05;5.00;;;1.57;;
1128;SDS011;553;51.038;7.216;2022-09-09T04:11:33;3.33;;;1.50;;
1128;SDS011;553;51.038;7.216;2022-09-09T04:14:00;3.13;;;1.47;;
1128;SDS011;553;51.038;7.216;2022-09-09T04:16:28;8.23;;;1.53;;
1128;SDS011;553;51.038;7.216;2022-09-09T04:18:55;4.80;;;1.70;;
1128;SDS011;553;51.038;7.216;2022-09-09T04:21:22;4.70;;;1.60;;
1128;SDS011;553;51.038;7.216;2022-09-09T04:23:49;1.97;;;1.20;;
1128;SDS011;553;51.038;7.216;2022-09-09T04:26:16;4.03;;;1.77;;
1128;SDS011;553;51.038;7.216;2022-09-09T04:28:44;6.57;;;1.53;;
1128;SDS011;553;51.038;7.216;2022-09-09T04:31:16;3.60;;;1.77;;
1128;SDS011;553;51.038;7.216;2022-09-09T04:33:52;3.80;;;1.70;;
1128;SDS011;553;51.038;7.216;2022-09-09T04:36:20;2.90;;;1.50;;
1128;SDS011;553;51.038;7.216;2022-09-09T04:38:49;4.10;;;1.53;;
1128;SDS011;553;51.038;7.216;2022-09-09T04:41:16;6.07;;;1.63;;
1128;SDS011;553;51.038;7.216;2022-09-09T04:43:45;5.37;;;1.70;;
1128;SDS011;553;51.038;7.216;2022-09-09T04:46:13;3.03;;;1.50;;
1128;SDS011;553;51.038;7.216;2022-09-09T04:48:41;10.27;;;1.43;;
1128;SDS011;553;51.038;7.216;2022-09-09T04:51:11;4.27;;;1.50;;
1128;SDS011;553;51.038;7.216;2022-09-09T04:53:39;5.73;;;1.83;;
1128;SDS011;553;51.038;7.216;2022-09-09T04:56:11;7.40;;;1.70;;
1128;SDS011;553;51.038;7.216;2022-09-09T04:58:47;3.10;;;1.30;;
1128;SDS011;553;51.038;7.216;2022-09-09T05:01:15;5.63;;;2.10;;
1128;SDS011;553;51.038;7.216;2022-09-09T05:03:45;6.03;;;1.60;;
1128;SDS011;553;51.038;7.216;2022-09-09T05:06:16;3.20;;;1.50;;
1128;SDS011;553;51.038;7.216;2022-09-09T05:08:47;4.80;;;1.67;;
1128;SDS011;553;51.038;7.216;2022-09-09T05:11:28;10.10;;;1.83;;
1128;SDS011;553;51.038;7.216;2022-09-09T05:14:03;2.60;;;1.53;;
1128;SDS011;553;51.038;7.216;2022-09-09T05:16:31;5.13;;;1.97;;
1128;SDS011;553;51.038;7.216;2022-09-09T05:18:58;5.87;;;1.47;;
1128;SDS011;553;51.038;7.216;2022-09-09T05:21:29;4.50;;;1.60;;
1128;SDS011;553;51.038;7.216;2022-09-09T05:23:57;2.93;;;1.33;;
1128;SDS011;553;51.038;7.216;2022-09-09T05:26:24;6.40;;;1.70;;
1128;SDS011;553;51.038;7.216;2022-09-09T05:28:52;4.93;;;1.77;;
1128;SDS011;553;51.038;7.216;2022-09-09T05:31:19;8.57;;;2.10;;
1128;SDS011;553;51.038;7.216;2022-09-09T05:33:49;5.80;;;1.40;;
1128;SDS011;553;51.038;7.216;2022-09-09T05:36:17;5.37;;;2.17;;
1128;SDS011;553;51.038;7.216;2022-09-09T05:38:49;3.87;;;1.53;;
1128;SDS011;553;51.038;7.216;2022-09-09T05:41:16;6.10;;;2.03;;
1128;SDS011;553;51.038;7.216;2022-09-09T05:43:44;4.27;;;2.33;;
1128;SDS011;553;51.038;7.216;2022-09-09T05:46:14;10.13;;;2.10;;
1128;SDS011;553;51.038;7.216;2022-09-09T05:48:43;5.60;;;2.00;;
1128;SDS011;553;51.038;7.216;2022-09-09T05:51:15;6.43;;;2.30;;
1128;SDS011;553;51.038;7.216;2022-09-09T05:53:47;4.60;;;2.17;;
1128;SDS011;553;51.038;7.216;2022-09-09T05:56:15;4.40;;;2.30;;
1128;SDS011;553;51.038;7.216;2022-09-09T05:58:46;8.73;;;2.80;;
1128;SDS011;553;51.038;7.216;2022-09-09T06:01:15;5.37;;;2.10;;
1128;SDS011;553;51.038;7.216;2022-09-09T06:03:44;3.27;;;2.10;;
1128;SDS011;553;51.038;7.216;2022-09-09T06:06:13;9.73;;;2.50;;
1128;SDS011;553;51.038;7.216;2022-09-09T06:08:43;5.80;;;2.33;;
1128;SDS011;553;51.038;7.216;2022-09-09T06:11:14;4.50;;;2.67;;
1128;SDS011;553;51.038;7.216;2022-09-09T06:13:43;6.40;;;2.30;;
1128;SDS011;553;51.038;7.216;2022-09-09T06:16:10;7.20;;;2.13;;
1128;SDS011;553;51.038;7.216;2022-09-09T06:18:40;4.80;;;2.70;;
1128;SDS011;553;51.038;7.216;2022-09-09T06:21:13;4.33;;;2.60;;
1128;SDS011;553;51.038;7.216;2022-09-09T06:23:43;7.30;;;2.50;;
1128;SDS011;553;51.038;7.216;2022-09-09T06:26:14;6.10;;;2.40;;
1128;SDS011;553;51.038;7.216;2022-09-09T06:28:48;6.40;;;2.40;;
1128;SDS011;553;51.038;7.216;2022-09-09T06:31:17;4.50;;;2.60;;
1128;SDS011;553;51.038;7.216;2022-09-09T06:33:52;4.03;;;1.90;;
1128;SDS011;553;51.038;7.216;2022-09-09T06:36:23;4.10;;;2.30;;
1128;SDS011;553;51.038;7.216;2022-09-09T06:38:52;7.50;;;2.87;;
1128;SDS011;553;51.038;7.216;2022-09-09T06:41:20;3.23;;;1.70;;
1128;SDS011;553;51.038;7.216;2022-09-09T06:43:48;5.37;;;2.00;;
1128;SDS011;553;51.038;7.216;2022-09-09T06:46:19;3.37;;;2.00;;
1128;SDS011;553;51.038;7.216;2022-09-09T06:48:49;7.43;;;2.50;;
1128;SDS011;553;51.038;7.216;2022-09-09T06:51:17;4.33;;;1.87;;
1128;SDS011;553;51.038;7.216;2022-09-09T06:53:49;9.23;;;2.30;;
1128;SDS011;553;51.038;7.216;2022-09-09T06:56:19;4.90;;;1.90;;
1128;SDS011;553;51.038;7.216;2022-09-09T06:58:52;6.17;;;1.80;;
1128;SDS011;553;51.038;7.216;2022-09-09T07:01:28;7.37;;;2.23;;
1128;SDS011;553;51.038;7.216;2022-09-09T07:03:59;4.73;;;2.00;;
1128;SDS011;553;51.038;7.216;2022-09-09T07:06:40;7.10;;;2.10;;
1128;SDS011;553;51.038;7.216;2022-09-09T07:09:13;5.13;;;1.90;;
1128;SDS011;553;51.038;7.216;2022-09-09T07:11:48;3.70;;;2.17;;
1128;SDS011;553;51.038;7.216;2022-09-09T07:14:18;3.87;;;1.70;;
1128;SDS011;553;51.038;7.216;2022-09-09T07:16:50;8.93;;;2.17;;
1128;SDS011;553;51.038;7.216;2022-09-09T07:19:22;2.50;;;1.60;;
1128;SDS011;553;51.038;7.216;2022-09-09T07:21:51;4.57;;;2.00;;
1128;SDS011;553;51.038;7.216;2022-09-09T07:24:21;6.17;;;2.23;;
1128;SDS011;553;51.038;7.216;2022-09-09T07:26:48;7.00;;;2.00;;
1128;SDS011;553;51.038;7.216;2022-09-09T07:29:15;4.17;;;1.70;;
1128;SDS011;553;51.038;7.216;2022-09-09T07:31:46;4.10;;;1.70;;
1128;SDS011;553;51.038;7.216;2022-09-09T07:34:19;4.27;;;1.30;;
1128;SDS011;553;51.038;7.216;2022-09-09T07:36:45;5.30;;;1.73;;
1128;SDS011;553;51.038;7.216;2022-09-09T07:39:13;6.53;;;1.97;;
1128;SDS011;553;51.038;7.216;2022-09-09T07:41:46;8.90;;;1.90;;
1128;SDS011;553;51.038;7.216;2022-09-09T07:44:17;6.47;;;1.57;;
1128;SDS011;553;51.038;7.216;2022-09-09T07:46:55;7.13;;;1.97;;
1128;SDS011;553;51.038;7.216;2022-09-09T07:49:27;5.80;;;1.83;;
1128;SDS011;553;51.038;7.216;2022-09-09T07:51:59;7.40;;;1.57;;
1128;SDS011;553;51.038;7.216;2022-09-09T07:54:27;5.37;;;1.40;;
1128;SDS011;553;51.038;7.216;2022-09-09T07:56:53;3.63;;;1.60;;
1128;SDS011;553;51.038;7.216;2022-09-09T07:59:23;4.87;;;1.70;;
1128;SDS011;553;51.038;7.216;2022-09-09T08:01:51;3.20;;;1.53;;
1128;SDS011;553;51.038;7.216;2022-09-09T08:04:25;4.87;;;1.70;;
1128;SDS011;553;51.038;7.216;2022-09-09T08:06:57;5.10;;;1.70;;
1128;SDS011;553;51.038;7.216;2022-09-09T08:09:27;4.70;;;1.93;;
1128;SDS011;553;51.038;7.216;2022-09-09T08:12:16;4.80;;;1.60;;
1128;SDS011;553;51.038;7.216;2022-09-09T08:14:43;3.53;;;1.30;;
1128;SDS011;553;51.038;7.216;2022-09-09T08:17:09;3.80;;;2.10;;
1128;SDS011;553;51.038;7.216;2022-09-09T08:19:37;10.90;;;3.37;;
1128;SDS011;553;51.038;7.216;2022-09-09T08:22:09;6.50;;;2.57;;
1128;SDS011;553;51.038;7.216;2022-09-09T08:24:38;5.60;;;1.60;;
1128;SDS011;553;51.038;7.216;2022-09-09T08:27:06;4.20;;;1.13;;
1128;SDS011;553;51.038;7.216;2022-09-09T08:29:32;2.80;;;1.27;;
1128;SDS011;553;51.038;7.216;2022-09-09T08:32:00;1.80;;;1.10;;
1128;SDS011;553;51.038;7.216;2022-09-09T08:34:28;4.43;;;1.50;;
1128;SDS011;553;51.038;7.216;2022-09-09T08:36:58;6.63;;;1.97;;
1128;SDS011;553;51.038;7.216;2022-09-09T08:39:32;5.93;;;1.50;;
1128;SDS011;553;51.038;7.216;2022-09-09T08:47:32;3.70;;;1.67;;
1128;SDS011;553;51.038;7.216;2022-09-09T08:58:16;5.10;;;1.37;;
1128;SDS011;553;51.038;7.216;2022-09-09T09:03:52;6.73;;;1.47;;
1128;SDS011;553;51.038;7.216;2022-09-09T09:12:10;4.97;;;1.50;;
1128;SDS011;553;51.038;7.216;2022-09-09T09:14:46;6.80;;;1.50;;
1128;SDS011;553;51.038;7.216;2022-09-09T09:17:18;4.97;;;1.00;;
1128;SDS011;553;51.038;7.216;2022-09-09T09:19:48;8.77;;;1.83;;
1128;SDS011;553;51.038;7.216;2022-09-09T09:22:20;8.70;;;1.20;;
1128;SDS011;553;51.038;7.216;2022-09-09T09:27:35;5.70;;;1.40;;
1128;SDS011;553;51.038;7.216;2022-09-09T09:30:23;5.63;;;1.40;;
1128;SDS011;553;51.038;7.216;2022-09-09T09:33:15;3.97;;;2.00;;
1128;SDS011;553;51.038;7.216;2022-09-09T09:35:49;5.60;;;1.50;;
1128;SDS011;553;51.038;7.216;2022-09-09T09:38:19;4.20;;;1.40;;
1128;SDS011;553;51.038;7.216;2022-09-09T09:41:09;4.27;;;1.30;;
1128;SDS011;553;51.038;7.216;2022-09-09T09:43:36;2.23;;;1.07;;
1128;SDS011;553;51.038;7.216;2022-09-09T09:46:22;5.00;;;1.20;;
1128;SDS011;553;51.038;7.216;2022-09-09T09:49:02;3.57;;;1.10;;
1128;SDS011;553;51.038;7.216;2022-09-09T09:51:32;4.17;;;1.40;;
1128;SDS011;553;51.038;7.216;2022-09-09T09:54:22;4.17;;;1.37;;
1128;SDS011;553;51.038;7.216;2022-09-09T09:57:14;4.60;;;1.03;;
1128;SDS011;553;51.038;7.216;2022-09-09T09:59:44;6.33;;;1.90;;
1128;SDS011;553;51.038;7.216;2022-09-09T10:02:22;4.27;;;1.20;;
1128;SDS011;553;51.038;7.216;2022-09-09T10:19:01;2.27;;;1.07;;
1128;SDS011;553;51.038;7.216;2022-09-09T10:30:24;5.73;;;1.40;;
1128;SDS011;553;51.038;7.216;2022-09-09T10:33:10;2.27;;;0.90;;
1128;SDS011;553;51.038;7.216;2022-09-09T10:36:08;3.63;;;0.87;;
1128;SDS011;553;51.038;7.216;2022-09-09T10:38:45;6.30;;;1.10;;
1128;SDS011;553;51.038;7.216;2022-09-09T10:41:58;4.40;;;1.03;;
1128;SDS011;553;51.038;7.216;2022-09-09T10:56:10;6.00;;;0.90;;
1128;SDS011;553;51.038;7.216;2022-09-09T10:58:49;2.90;;;0.90;;
1128;SDS011;553;51.038;7.216;2022-09-09T11:01:31;4.70;;;1.00;;
1128;SDS011;553;51.038;7.216;2022-09-09T11:04:21;3.40;;;0.90;;
1128;SDS011;553;51.038;7.216;2022-09-09T11:06:53;4.30;;;1.30;;
1128;SDS011;553;51.038;7.216;2022-09-09T11:09:26;8.20;;;1.60;;
1128;SDS011;553;51.038;7.216;2022-09-09T11:11:57;1.90;;;0.87;;
1128;SDS011;553;51.038;7.216;2022-09-09T11:17:10;2.70;;;1.07;;
1128;SDS011;553;51.038;7.216;2022-09-09T11:19:42;5.37;;;0.90;;
1128;SDS011;553;51.038;7.216;2022-09-09T11:25:05;6.10;;;1.07;;
1128;SDS011;553;51.038;7.216;2022-09-09T11:28:05;4.57;;;1.07;;
1128;SDS011;553;51.038;7.216;2022-09-09T11:39:42;2.00;;;1.00;;
1128;SDS011;553;51.038;7.216;2022-09-09T11:44:39;3.20;;;0.97;;
1128;SDS011;553;51.038;7.216;2022-09-09T11:52:42;5.17;;;1.20;;
1128;SDS011;553;51.038;7.216;2022-09-09T11:57:59;3.27;;;0.87;;
1128;SDS011;553;51.038;7.216;2022-09-09T12:00:41;3.13;;;1.23;;
1128;SDS011;553;51.038;7.216;2022-09-09T12:06:09;2.80;;;1.10;;
1128;SDS011;553;51.038;7.216;2022-09-09T12:08:40;2.00;;;0.80;;
1128;SDS011;553;51.038;7.216;2022-09-09T12:11:11;3.83;;;1.00;;
1128;SDS011;553;51.038;7.216;2022-09-09T12:13:38;3.70;;;0.97;;
1128;SDS011;553;51.038;7.216;2022-09-09T12:16:04;4.47;;;1.00;;
1128;SDS011;553;51.038;7.216;2022-09-09T12:23:41;2.60;;;0.80;;
1128;SDS011;553;51.038;7.216;2022-09-09T12:26:19;5.00;;;0.93;;
1128;SDS011;553;51.038;7.216;2022-09-09T12:29:09;3.53;;;1.10;;
1128;SDS011;553;51.038;7.216;2022-09-09T12:32:06;2.40;;;0.90;;
1128;SDS011;553;51.038;7.216;2022-09-09T12:34:41;3.33;;;1.10;;
1128;SDS011;553;51.038;7.216;2022-09-09T12:39:56;2.60;;;0.80;;
1128;SDS011;553;51.038;7.216;2022-09-09T12:42:30;2.93;;;0.93;;
1128;SDS011;553;51.038;7.216;2022-09-09T12:45:14;4.30;;;1.10;;
1128;SDS011;553;51.038;7.216;2022-09-09T12:50:16;2.23;;;0.90;;
1128;SDS011;553;51.038;7.216;2022-09-09T12:52:47;3.70;;;0.97;;
1128;SDS011;553;51.038;7.216;2022-09-09T12:55:21;4.87;;;0.83;;
1128;SDS011;553;51.038;7.216;2022-09-09T12:57:51;1.43;;;0.70;;
1128;SDS011;553;51.038;7.216;2022-09-09T13:00:19;1.83;;;0.60;;
1128;SDS011;553;51.038;7.216;2022-09-09T13:02:58;3.30;;;0.73;;
1128;SDS011;553;51.038;7.216;2022-09-09T13:05:37;2.17;;;0.97;;
1128;SDS011;553;51.038;7.216;2022-09-09T13:08:05;2.43;;;0.67;;
1128;SDS011;553;51.038;7.216;2022-09-09T13:10:37;3.57;;;1.00;;
1128;SDS011;553;51.038;7.216;2022-09-09T13:13:26;1.80;;;0.83;;
1128;SDS011;553;51.038;7.216;2022-09-09T13:16:05;3.17;;;0.80;;
1128;SDS011;553;51.038;7.216;2022-09-09T13:18:43;2.50;;;0.73;;
1128;SDS011;553;51.038;7.216;2022-09-09T13:21:10;3.60;;;1.00;;
1128;SDS011;553;51.038;7.216;2022-09-09T13:23:37;2.93;;;0.80;;
1128;SDS011;553;51.038;7.216;2022-09-09T13:26:06;3.67;;;1.07;;
1128;SDS011;553;51.038;7.216;2022-09-09T13:28:50;6.07;;;1.00;;
1128;SDS011;553;51.038;7.216;2022-09-09T13:31:23;2.07;;;0.90;;
1128;SDS011;553;51.038;7.216;2022-09-09T13:33:50;2.00;;;0.50;;
1128;SDS011;553;51.038;7.216;2022-09-09T13:36:27;2.53;;;1.00;;
1128;SDS011;553;51.038;7.216;2022-09-09T13:38:57;2.40;;;0.83;;
1128;SDS011;553;51.038;7.216;2022-09-09T13:41:29;5.80;;;0.90;;
1128;SDS011;553;51.038;7.216;2022-09-09T13:44:17;1.87;;;0.93;;
1128;SDS011;553;51.038;7.216;2022-09-09T13:46:59;3.57;;;1.27;;
1128;SDS011;553;51.038;7.216;2022-09-09T13:49:27;3.33;;;0.90;;
1128;SDS011;553;51.038;7.216;2022-09-09T13:52:17;1.60;;;0.60;;
1128;SDS011;553;51.038;7.216;2022-09-09T13:54:51;4.40;;;1.17;;
1128;SDS011;553;51.038;7.216;2022-09-09T13:57:19;2.20;;;0.60;;
1128;SDS011;553;51.038;7.216;2022-09-09T13:59:47;2.50;;;0.70;;
1128;SDS011;553;51.038;7.216;2022-09-09T14:02:31;4.27;;;1.20;;
1128;SDS011;553;51.038;7.216;2022-09-09T14:04:59;2.13;;;0.60;;
1128;SDS011;553;51.038;7.216;2022-09-09T14:07:26;3.77;;;0.83;;
1128;SDS011;553;51.038;7.216;2022-09-09T14:09:53;1.57;;;0.60;;
1128;SDS011;553;51.038;7.216;2022-09-09T14:12:20;2.53;;;0.60;;
1128;SDS011;553;51.038;7.216;2022-09-09T14:14:46;1.97;;;0.60;;
1128;SDS011;553;51.038;7.216;2022-09-09T14:17:13;2.10;;;0.63;;
1128;SDS011;553;51.038;7.216;2022-09-09T14:19:40;2.40;;;0.40;;
1128;SDS011;553;51.038;7.216;2022-09-09T14:22:07;4.13;;;0.80;;
1128;SDS011;553;51.038;7.216;2022-09-09T14:24:34;4.60;;;0.80;;
1128;SDS011;553;51.038;7.216;2022-09-09T14:27:01;3.47;;;0.60;;
1128;SDS011;553;51.038;7.216;2022-09-09T14:29:27;1.40;;;0.50;;
1128;SDS011;553;51.038;7.216;2022-09-09T14:31:54;2.37;;;0.80;;
1128;SDS011;553;51.038;7.216;2022-09-09T14:34:21;3.20;;;0.90;;
1128;SDS011;553;51.038;7.216;2022-09-09T14:36:47;1.33;;;0.70;;
1128;SDS011;553;51.038;7.216;2022-09-09T14:39:14;1.87;;;0.77;;
1128;SDS011;553;51.038;7.216;2022-09-09T14:41:41;5.43;;;0.90;;
1128;SDS011;553;51.038;7.216;2022-09-09T14:44:07;2.90;;;0.80;;
1128;SDS011;553;51.038;7.216;2022-09-09T14:46:34;1.53;;;0.50;;
1128;SDS011;553;51.038;7.216;2022-09-09T14:49:01;2.67;;;0.60;;
1128;SDS011;553;51.038;7.216;2022-09-09T14:51:27;3.37;;;0.77;;
1128;SDS011;553;51.038;7.216;2022-09-09T14:53:55;1.70;;;0.67;;
1128;SDS011;553;51.038;7.216;2022-09-09T14:56:25;3.30;;;0.60;;
1128;SDS011;553;51.038;7.216;2022-09-09T14:58:54;2.20;;;0.90;;
1128;SDS011;553;51.038;7.216;2022-09-09T15:01:22;1.23;;;0.60;;
1128;SDS011;553;51.038;7.216;2022-09-09T15:03:51;2.93;;;1.13;;
1128;SDS011;553;51.038;7.216;2022-09-09T15:06:19;0.93;;;0.50;;
1128;SDS011;553;51.038;7.216;2022-09-09T15:08:47;2.07;;;0.87;;
1128;SDS011;553;51.038;7.216;2022-09-09T15:11:15;3.03;;;1.40;;
1128;SDS011;553;51.038;7.216;2022-09-09T15:13:43;7.13;;;1.90;;
1128;SDS011;553;51.038;7.216;2022-09-09T15:16:11;2.10;;;0.70;;
1128;SDS011;553;51.038;7.216;2022-09-09T15:18:45;1.57;;;0.60;;
1128;SDS011;553;51.038;7.216;2022-09-09T15:21:13;2.37;;;0.80;;
1128;SDS011;553;51.038;7.216;2022-09-09T15:23:42;3.10;;;1.00;;
1128;SDS011;553;51.038;7.216;2022-09-09T15:26:09;3.03;;;1.03;;
1128;SDS011;553;51.038;7.216;2022-09-09T15:28:37;3.93;;;1.00;;
1128;SDS011;553;51.038;7.216;2022-09-09T15:31:05;2.00;;;0.90;;
1128;SDS011;553;51.038;7.216;2022-09-09T15:33:33;2.50;;;0.83;;
1128;SDS011;553;51.038;7.216;2022-09-09T15:36:18;2.20;;;0.93;;
1128;SDS011;553;51.038;7.216;2022-09-09T15:38:47;2.57;;;0.73;;
1128;SDS011;553;51.038;7.216;2022-09-09T15:41:15;2.40;;;0.83;;
1128;SDS011;553;51.038;7.216;2022-09-09T15:43:43;1.80;;;0.70;;
1128;SDS011;553;51.038;7.216;2022-09-09T15:49:15;1.67;;;1.10;;
1128;SDS011;553;51.038;7.216;2022-09-09T15:51:42;3.67;;;1.63;;
1128;SDS011;553;51.038;7.216;2022-09-09T15:54:13;1.90;;;1.40;;
1128;SDS011;553;51.038;7.216;2022-09-09T15:56:43;2.00;;;1.17;;
1128;SDS011;553;51.038;7.216;2022-09-09T15:59:10;2.70;;;1.30;;
1128;SDS011;553;51.038;7.216;2022-09-09T16:01:37;3.27;;;1.40;;
1128;SDS011;553;51.038;7.216;2022-09-09T16:04:08;4.40;;;1.43;;
1128;SDS011;553;51.038;7.216;2022-09-09T16:06:35;1.70;;;1.00;;
1128;SDS011;553;51.038;7.216;2022-09-09T16:09:03;2.40;;;1.37;;
1128;SDS011;553;51.038;7.216;2022-09-09T16:11:32;1.67;;;1.20;;
1128;SDS011;553;51.038;7.216;2022-09-09T16:14:01;1.47;;;1.20;;
1128;SDS011;553;51.038;7.216;2022-09-09T16:16:30;3.60;;;1.47;;
1128;SDS011;553;51.038;7.216;2022-09-09T16:18:58;2.30;;;1.47;;
1128;SDS011;553;51.038;7.216;2022-09-09T16:21:31;3.30;;;1.60;;
1128;SDS011;553;51.038;7.216;2022-09-09T16:24:01;2.60;;;1.80;;
1128;SDS011;553;51.038;7.216;2022-09-09T16:26:29;3.63;;;1.40;;
1128;SDS011;553;51.038;7.216;2022-09-09T16:28:59;3.67;;;1.33;;
1128;SDS011;553;51.038;7.216;2022-09-09T16:31:26;1.50;;;1.00;;
1128;SDS011;553;51.038;7.216;2022-09-09T16:33:54;2.20;;;0.73;;
1128;SDS011;553;51.038;7.216;2022-09-09T16:36:22;1.90;;;0.70;;
1128;SDS011;553;51.038;7.216;2022-09-09T16:38:54;1.77;;;0.67;;
1128;SDS011;553;51.038;7.216;2022-09-09T16:41:23;2.20;;;0.67;;
1128;SDS011;553;51.038;7.216;2022-09-09T16:43:54;2.43;;;1.27;;
1128;SDS011;553;51.038;7.216;2022-09-09T16:46:23;1.23;;;0.70;;
1128;SDS011;553;51.038;7.216;2022-09-09T16:48:51;2.10;;;0.70;;
1128;SDS011;553;51.038;7.216;2022-09-09T16:51:18;1.37;;;0.80;;
1128;SDS011;553;51.038;7.216;2022-09-09T16:53:46;4.97;;;0.90;;
1128;SDS011;553;51.038;7.216;2022-09-09T16:56:14;1.83;;;0.83;;
1128;SDS011;553;51.038;7.216;2022-09-09T16:58:42;3.20;;;1.00;;
1128;SDS011;553;51.038;7.216;2022-09-09T17:01:11;2.03;;;0.83;;
1128;SDS011;553;51.038;7.216;2022-09-09T17:03:40;1.20;;;0.70;;
1128;SDS011;553;51.038;7.216;2022-09-09T17:06:10;1.27;;;0.77;;
1128;SDS011;553;51.038;7.216;2022-09-09T17:08:39;3.50;;;0.77;;
1128;SDS011;553;51.038;7.216;2022-09-09T17:11:14;2.87;;;1.40;;
1128;SDS011;553;51.038;7.216;2022-09-09T17:13:42;1.87;;;0.80;;
1128;SDS011;553;51.038;7.216;2022-09-09T17:16:09;2.40;;;1.10;;
1128;SDS011;553;51.038;7.216;2022-09-09T17:18:37;1.83;;;1.07;;
1128;SDS011;553;51.038;7.216;2022-09-09T17:21:05;2.07;;;1.40;;
1128;SDS011;553;51.038;7.216;2022-09-09T17:23:34;3.13;;;1.20;;
1128;SDS011;553;51.038;7.216;2022-09-09T17:26:07;2.30;;;1.00;;
1128;SDS011;553;51.038;7.216;2022-09-09T17:28:36;2.10;;;1.10;;
1128;SDS011;553;51.038;7.216;2022-09-09T17:31:08;2.00;;;1.40;;
1128;SDS011;553;51.038;7.216;2022-09-09T17:33:38;2.80;;;1.80;;
1128;SDS011;553;51.038;7.216;2022-09-09T17:36:09;1.53;;;1.07;;
1128;SDS011;553;51.038;7.216;2022-09-09T17:38:36;5.67;;;1.50;;
1128;SDS011;553;51.038;7.216;2022-09-09T17:41:04;4.73;;;1.30;;
1128;SDS011;553;51.038;7.216;2022-09-09T17:43:33;2.10;;;1.53;;
1128;SDS011;553;51.038;7.216;2022-09-09T17:46:09;4.00;;;1.50;;
1128;SDS011;553;51.038;7.216;2022-09-09T17:48:36;2.43;;;1.40;;
1128;SDS011;553;51.038;7.216;2022-09-09T17:51:04;2.83;;;1.47;;
1128;SDS011;553;51.038;7.216;2022-09-09T17:53:40;2.37;;;1.43;;
1128;SDS011;553;51.038;7.216;2022-09-09T17:56:10;2.03;;;1.53;;
1128;SDS011;553;51.038;7.216;2022-09-09T17:58:38;2.97;;;1.37;;
1128;SDS011;553;51.038;7.216;2022-09-09T18:01:06;2.70;;;1.20;;
1128;SDS011;553;51.038;7.216;2022-09-09T18:03:37;4.30;;;1.60;;
1128;SDS011;553;51.038;7.216;2022-09-09T18:06:09;3.10;;;1.60;;
1128;SDS011;553;51.038;7.216;2022-09-09T18:08:41;2.00;;;1.30;;
1128;SDS011;553;51.038;7.216;2022-09-09T18:11:12;3.57;;;1.60;;
1128;SDS011;553;51.038;7.216;2022-09-09T18:13:39;5.03;;;1.50;;
1128;SDS011;553;51.038;7.216;2022-09-09T18:16:06;2.33;;;1.40;;
1128;SDS011;553;51.038;7.216;2022-09-09T18:18:34;3.70;;;1.63;;